首页
METAR-TAF:

METAR-TAF

机场 :

仙台機場

仙台, 日本

纬度: 38-08N, 经度: 140-55E, 海拔: 1米

当前天气观测

该预报发布于8小时和25分钟前的12:00 UTC
风速3节,风向南转西南
温度 7°C
湿度 76%
气压 1013 hPa
能见度10公里或以上
少量云层高于3000英尺

METAR: RJSS 071200Z 21003KT 9999 FEW030 07/03 Q1013

时间: 05:25 (20:25 UTC)

预报

该预报发布于3小时和20分钟前的17:05 UTC
预报有效从07日的 18点(UTC)到 09日的 00点(UTC)
风速4节,风向西转西南
能见度10公里或以上
少量云层高于3000英尺
散云层高于5000英尺
成为
从 08日的 00点(UTC)到 08日的 02点(UTC)
风速10节,风向东南
短暂存在
从 08日的 09点(UTC)到 08日的 12点(UTC)
能見度: 3000
阵雨, 轻雾
成为
从 08日的 12点(UTC)到 08日的 15点(UTC)
风速4节,风向北转西北

TAF: RJSS 071705Z 0718/0900 24004KT 9999 FEW030 SCT050 BECMG 0800/0802 14010KT TEMPO 0809/0812 3000 SHRA BR BECMG 0812/0815 34004KT

超过4000个机场的气象观测和天气预报(METAR&TAF报告)。

可查询的气象台以黄色和红色小点在地图上表示。

将鼠标移到小点上方,可查看气象台名称。

然后点击查看天气观测和预报。

如需切换地图:点击带黑十字的绿色按钮放大地图;点击带横线的绿色按钮缩小地图;或者点击绿色箭头查看邻近地区的地图。


METAR-TAF: